sensor_id;sensor_type;location;lat;lon;timestamp;temperature;humidity
24632;DHT22;59977;48.782;9.190;2023-02-28T02:15:36;0.70;99.90
24632;DHT22;59977;48.782;9.190;2023-02-28T02:18:33;0.70;99.90
24632;DHT22;59977;48.782;9.190;2023-02-28T03:25:20;0.60;99.90
24632;DHT22;59977;48.782;9.190;2023-02-28T03:35:21;0.70;99.90
24632;DHT22;59977;48.782;9.190;2023-02-28T03:42:56;0.70;99.90
24632;DHT22;59977;48.782;9.190;2023-02-28T03:45:26;0.60;99.90
24632;DHT22;59977;48.782;9.190;2023-02-28T03:50:26;0.50;99.90
24632;DHT22;59977;48.782;9.190;2023-02-28T03:53:14;0.80;99.90
24632;DHT22;59977;48.782;9.190;2023-02-28T03:55:45;0.70;99.90
24632;DHT22;59977;48.782;9.190;2023-02-28T03:58:24;0.50;99.90
24632;DHT22;59977;48.782;9.190;2023-02-28T04:01:11;0.40;99.90
24632;DHT22;59977;48.782;9.190;2023-02-28T04:03:38;0.50;99.90
24632;DHT22;59977;48.782;9.190;2023-02-28T04:06:07;0.60;99.90
24632;DHT22;59977;48.782;9.190;2023-02-28T04:08:33;0.70;99.90
24632;DHT22;59977;48.782;9.190;2023-02-28T04:11:04;0.00;99.90
24632;DHT22;59977;48.782;9.190;2023-02-28T04:32:59;0.80;99.90
24632;DHT22;59977;48.782;9.190;2023-02-28T04:45:09;0.60;99.90
24632;DHT22;59977;48.782;9.190;2023-02-28T04:47:36;0.60;99.90
24632;DHT22;59977;48.782;9.190;2023-02-28T04:50:01;0.70;99.90
24632;DHT22;59977;48.782;9.190;2023-02-28T04:57:19;0.80;99.90
24632;DHT22;59977;48.782;9.190;2023-02-28T04:59:45;0.70;99.90
24632;DHT22;59977;48.782;9.190;2023-02-28T05:07:03;0.80;99.90
24632;DHT22;59977;48.782;9.190;2023-02-28T05:11:55;0.70;99.90
24632;DHT22;59977;48.782;9.190;2023-02-28T05:21:50;0.80;99.90
24632;DHT22;59977;48.782;9.190;2023-02-28T05:26:48;0.70;99.90
24632;DHT22;59977;48.782;9.190;2023-02-28T05:29:15;0.70;99.90
24632;DHT22;59977;48.782;9.190;2023-02-28T05:34:06;1.00;99.90
24632;DHT22;59977;48.782;9.190;2023-02-28T05:46:17;0.90;99.90
24632;DHT22;59977;48.782;9.190;2023-02-28T05:48:46;0.80;99.90
24632;DHT22;59977;48.782;9.190;2023-02-28T05:51:12;1.60;99.90
24632;DHT22;59977;48.782;9.190;2023-02-28T05:56:04;0.90;99.90
24632;DHT22;59977;48.782;9.190;2023-02-28T06:01:00;1.00;99.90
24632;DHT22;59977;48.782;9.190;2023-02-28T06:05:52;1.00;99.90
24632;DHT22;59977;48.782;9.190;2023-02-28T06:13:10;0.80;99.90
24632;DHT22;59977;48.782;9.190;2023-02-28T06:15:38;0.90;99.90
24632;DHT22;59977;48.782;9.190;2023-02-28T06:22:56;1.00;99.90
24632;DHT22;59977;48.782;9.190;2023-02-28T06:25:24;0.90;99.90
24632;DHT22;59977;48.782;9.190;2023-02-28T06:30:16;1.00;99.90
24632;DHT22;59977;48.782;9.190;2023-02-28T06:44:55;1.00;99.90
24632;DHT22;59977;48.782;9.190;2023-02-28T06:47:21;1.00;99.90
24632;DHT22;59977;48.782;9.190;2023-02-28T06:49:47;1.10;99.90
24632;DHT22;59977;48.782;9.190;2023-02-28T06:52:14;1.00;99.90
24632;DHT22;59977;48.782;9.190;2023-02-28T06:54:40;1.00;99.90
24632;DHT22;59977;48.782;9.190;2023-02-28T06:59:32;1.10;99.90
24632;DHT22;59977;48.782;9.190;2023-02-28T07:01:58;1.20;99.90
24632;DHT22;59977;48.782;9.190;2023-02-28T07:14:08;1.40;99.90
24632;DHT22;59977;48.782;9.190;2023-02-28T07:26:19;1.50;99.90
24632;DHT22;59977;48.782;9.190;2023-02-28T07:28:47;1.60;99.90
24632;DHT22;59977;48.782;9.190;2023-02-28T07:31:14;1.50;99.90
24632;DHT22;59977;48.782;9.190;2023-02-28T07:33:40;1.30;99.90
24632;DHT22;59977;48.782;9.190;2023-02-28T07:36:09;1.60;99.90
24632;DHT22;59977;48.782;9.190;2023-02-28T07:38:41;1.50;99.90
24632;DHT22;59977;48.782;9.190;2023-02-28T07:41:07;1.60;99.90
24632;DHT22;59977;48.782;9.190;2023-02-28T07:43:34;1.30;99.90
24632;DHT22;59977;48.782;9.190;2023-02-28T07:46:10;1.40;99.90
24632;DHT22;59977;48.782;9.190;2023-02-28T07:48:37;1.20;99.90
24632;DHT22;59977;48.782;9.190;2023-02-28T07:51:02;2.00;99.90
24632;DHT22;59977;48.782;9.190;2023-02-28T07:53:29;1.30;99.90
24632;DHT22;59977;48.782;9.190;2023-02-28T07:55:56;1.70;99.90
24632;DHT22;59977;48.782;9.190;2023-02-28T07:58:21;1.50;99.90
24632;DHT22;59977;48.782;9.190;2023-02-28T08:05:39;1.50;99.90
24632;DHT22;59977;48.782;9.190;2023-02-28T08:08:08;1.70;99.90
24632;DHT22;59977;48.782;9.190;2023-02-28T08:10:34;0.90;99.90
24632;DHT22;59977;48.782;9.190;2023-02-28T08:13:00;1.70;99.90
24632;DHT22;59977;48.782;9.190;2023-02-28T08:15:26;4.70;99.90
24632;DHT22;59977;48.782;9.190;2023-02-28T08:17:52;1.70;99.90
24632;DHT22;59977;48.782;9.190;2023-02-28T08:20:18;1.70;99.90
24632;DHT22;59977;48.782;9.190;2023-02-28T08:22:44;1.70;99.90
24632;DHT22;59977;48.782;9.190;2023-02-28T08:25:10;1.80;99.90
24632;DHT22;59977;48.782;9.190;2023-02-28T08:27:36;3.20;99.90
24632;DHT22;59977;48.782;9.190;2023-02-28T08:30:02;1.80;99.90
24632;DHT22;59977;48.782;9.190;2023-02-28T08:32:28;1.90;99.90
24632;DHT22;59977;48.782;9.190;2023-02-28T08:34:55;1.70;99.90
24632;DHT22;59977;48.782;9.190;2023-02-28T08:37:20;1.70;99.90
24632;DHT22;59977;48.782;9.190;2023-02-28T08:39:46;1.80;99.90
24632;DHT22;59977;48.782;9.190;2023-02-28T08:42:12;1.90;99.90
24632;DHT22;59977;48.782;9.190;2023-02-28T08:44:38;1.80;99.90
24632;DHT22;59977;48.782;9.190;2023-02-28T08:47:04;1.70;99.90
24632;DHT22;59977;48.782;9.190;2023-02-28T08:49:30;1.80;99.90
24632;DHT22;59977;48.782;9.190;2023-02-28T08:51:56;1.80;99.90
24632;DHT22;59977;48.782;9.190;2023-02-28T08:54:23;1.90;99.90
24632;DHT22;59977;48.782;9.190;2023-02-28T08:56:49;2.00;99.90
24632;DHT22;59977;48.782;9.190;2023-02-28T08:59:14;2.00;99.90
24632;DHT22;59977;48.782;9.190;2023-02-28T09:01:40;1.90;99.90
24632;DHT22;59977;48.782;9.190;2023-02-28T09:04:09;1.90;99.90
24632;DHT22;59977;48.782;9.190;2023-02-28T09:06:36;4.30;99.90
24632;DHT22;59977;48.782;9.190;2023-02-28T09:09:01;2.00;99.90
24632;DHT22;59977;48.782;9.190;2023-02-28T09:11:29;2.00;99.90
24632;DHT22;59977;48.782;9.190;2023-02-28T09:13:55;2.00;99.90
24632;DHT22;59977;48.782;9.190;2023-02-28T09:16:23;2.10;99.90
24632;DHT22;59977;48.782;9.190;2023-02-28T09:18:49;2.20;99.90
24632;DHT22;59977;48.782;9.190;2023-02-28T09:21:16;4.10;99.90
24632;DHT22;59977;48.782;9.190;2023-02-28T09:23:44;2.00;99.90
24632;DHT22;59977;48.782;9.190;2023-02-28T09:26:28;2.30;99.90
24632;DHT22;59977;48.782;9.190;2023-02-28T09:28:54;2.90;99.90
24632;DHT22;59977;48.782;9.190;2023-02-28T09:31:26;2.40;99.90
24632;DHT22;59977;48.782;9.190;2023-02-28T09:33:55;2.50;99.90
24632;DHT22;59977;48.782;9.190;2023-02-28T09:36:22;2.50;99.90
24632;DHT22;59977;48.782;9.190;2023-02-28T09:43:55;5.30;99.90
24632;DHT22;59977;48.782;9.190;2023-02-28T09:46:34;2.60;99.90
24632;DHT22;59977;48.782;9.190;2023-02-28T09:49:05;2.70;99.90
24632;DHT22;59977;48.782;9.190;2023-02-28T09:51:44;2.70;99.90
24632;DHT22;59977;48.782;9.190;2023-02-28T09:54:18;2.80;99.90
24632;DHT22;59977;48.782;9.190;2023-02-28T09:56:48;2.80;99.90
24632;DHT22;59977;48.782;9.190;2023-02-28T10:05:12;2.80;99.90
24632;DHT22;59977;48.782;9.190;2023-02-28T10:07:53;2.90;99.90
24632;DHT22;59977;48.782;9.190;2023-02-28T10:13:04;3.20;99.90
24632;DHT22;59977;48.782;9.190;2023-02-28T10:15:31;3.20;99.90
24632;DHT22;59977;48.782;9.190;2023-02-28T10:18:01;4.50;99.90
24632;DHT22;59977;48.782;9.190;2023-02-28T10:20:31;3.20;99.90
24632;DHT22;59977;48.782;9.190;2023-02-28T10:23:13;4.30;99.90
24632;DHT22;59977;48.782;9.190;2023-02-28T10:25:44;3.30;99.90
24632;DHT22;59977;48.782;9.190;2023-02-28T10:28:14;4.40;99.90
24632;DHT22;59977;48.782;9.190;2023-02-28T10:30:48;3.40;99.90
24632;DHT22;59977;48.782;9.190;2023-02-28T10:33:22;3.60;99.90
24632;DHT22;59977;48.782;9.190;2023-02-28T10:35:48;3.70;99.90
24632;DHT22;59977;48.782;9.190;2023-02-28T10:38:23;3.90;99.90
24632;DHT22;59977;48.782;9.190;2023-02-28T10:40:50;3.70;99.90
24632;DHT22;59977;48.782;9.190;2023-02-28T10:48:40;3.70;99.90
24632;DHT22;59977;48.782;9.190;2023-02-28T10:51:19;3.80;99.90
24632;DHT22;59977;48.782;9.190;2023-02-28T10:53:50;3.90;99.90
24632;DHT22;59977;48.782;9.190;2023-02-28T10:56:24;3.90;99.90
24632;DHT22;59977;48.782;9.190;2023-02-28T11:03:48;4.00;99.90
24632;DHT22;59977;48.782;9.190;2023-02-28T11:06:23;4.00;99.90
24632;DHT22;59977;48.782;9.190;2023-02-28T11:08:55;4.20;99.90
24632;DHT22;59977;48.782;9.190;2023-02-28T11:11:23;4.30;99.90
24632;DHT22;59977;48.782;9.190;2023-02-28T11:13:55;4.30;99.90
24632;DHT22;59977;48.782;9.190;2023-02-28T11:16:22;4.50;99.90
24632;DHT22;59977;48.782;9.190;2023-02-28T11:18:57;4.60;99.90
24632;DHT22;59977;48.782;9.190;2023-02-28T11:21:32;4.70;99.90
24632;DHT22;59977;48.782;9.190;2023-02-28T11:24:14;4.70;99.90
24632;DHT22;59977;48.782;9.190;2023-02-28T11:26:47;4.70;99.90
24632;DHT22;59977;48.782;9.190;2023-02-28T11:29:25;4.80;99.90
24632;DHT22;59977;48.782;9.190;2023-02-28T11:32:03;4.90;99.90
24632;DHT22;59977;48.782;9.190;2023-02-28T11:34:30;4.80;99.90
24632;DHT22;59977;48.782;9.190;2023-02-28T11:36:58;4.80;99.90
24632;DHT22;59977;48.782;9.190;2023-02-28T11:39:25;4.80;99.80
24632;DHT22;59977;48.782;9.190;2023-02-28T11:52:48;4.90;99.80
24632;DHT22;59977;48.782;9.190;2023-02-28T11:55:26;4.80;99.60
24632;DHT22;59977;48.782;9.190;2023-02-28T11:58:12;4.80;99.70
24632;DHT22;59977;48.782;9.190;2023-02-28T12:01:04;4.70;99.80
24632;DHT22;59977;48.782;9.190;2023-02-28T12:06:01;4.60;99.90
24632;DHT22;59977;48.782;9.190;2023-02-28T12:08:47;4.60;99.90
24632;DHT22;59977;48.782;9.190;2023-02-28T12:13:50;4.90;99.90
24632;DHT22;59977;48.782;9.190;2023-02-28T12:26:43;4.90;99.30
24632;DHT22;59977;48.782;9.190;2023-02-28T12:29:29;4.80;99.20
24632;DHT22;59977;48.782;9.190;2023-02-28T12:34:37;4.90;99.20
24632;DHT22;59977;48.782;9.190;2023-02-28T12:37:31;4.90;99.00
24632;DHT22;59977;48.782;9.190;2023-02-28T12:40:01;4.90;98.90
24632;DHT22;59977;48.782;9.190;2023-02-28T12:42:33;5.10;98.50
24632;DHT22;59977;48.782;9.190;2023-02-28T12:45:19;5.10;98.40
24632;DHT22;59977;48.782;9.190;2023-02-28T12:47:50;5.30;98.30
24632;DHT22;59977;48.782;9.190;2023-02-28T12:50:18;5.20;98.20
24632;DHT22;59977;48.782;9.190;2023-02-28T12:58:13;5.20;97.70
24632;DHT22;59977;48.782;9.190;2023-02-28T13:09:04;5.30;98.00
24632;DHT22;59977;48.782;9.190;2023-02-28T13:11:40;5.40;97.60
24632;DHT22;59977;48.782;9.190;2023-02-28T13:19:59;5.40;97.50
24632;DHT22;59977;48.782;9.190;2023-02-28T13:24:55;5.70;96.90
24632;DHT22;59977;48.782;9.190;2023-02-28T13:27:40;6.00;96.50
24632;DHT22;59977;48.782;9.190;2023-02-28T13:44:15;6.20;94.80
24632;DHT22;59977;48.782;9.190;2023-02-28T13:57:35;6.30;93.80
24632;DHT22;59977;48.782;9.190;2023-02-28T14:00:20;6.80;92.40
24632;DHT22;59977;48.782;9.190;2023-02-28T14:07:57;7.90;90.20
24632;DHT22;59977;48.782;9.190;2023-02-28T14:10:27;6.00;90.60
24632;DHT22;59977;48.782;9.190;2023-02-28T14:15:41;10.20;90.00
24632;DHT22;59977;48.782;9.190;2023-02-28T14:18:20;8.00;88.50
24632;DHT22;59977;48.782;9.190;2023-02-28T14:20:47;8.20;87.40
24632;DHT22;59977;48.782;9.190;2023-02-28T14:23:24;9.00;86.50
24632;DHT22;59977;48.782;9.190;2023-02-28T14:28:49;8.00;86.80
24632;DHT22;59977;48.782;9.190;2023-02-28T14:31:18;8.00;86.50
24632;DHT22;59977;48.782;9.190;2023-02-28T14:33:59;8.30;85.20
24632;DHT22;59977;48.782;9.190;2023-02-28T14:36:35;8.70;83.80
24632;DHT22;59977;48.782;9.190;2023-02-28T14:42:02;8.10;83.10
24632;DHT22;59977;48.782;9.190;2023-02-28T14:44:30;8.40;83.20
24632;DHT22;59977;48.782;9.190;2023-02-28T14:47:14;8.70;80.80
24632;DHT22;59977;48.782;9.190;2023-02-28T14:49:44;10.10;82.20
24632;DHT22;59977;48.782;9.190;2023-02-28T14:52:23;9.60;81.00
24632;DHT22;59977;48.782;9.190;2023-02-28T14:54:57;9.20;78.40
24632;DHT22;59977;48.782;9.190;2023-02-28T15:00:02;9.30;77.70
24632;DHT22;59977;48.782;9.190;2023-02-28T15:02:33;9.40;77.60
24632;DHT22;59977;48.782;9.190;2023-02-28T15:05:02;9.70;76.20
24632;DHT22;59977;48.782;9.190;2023-02-28T15:07:36;11.80;76.40
24632;DHT22;59977;48.782;9.190;2023-02-28T15:15:22;9.80;73.30
24632;DHT22;59977;48.782;9.190;2023-02-28T15:17:54;9.90;73.30
24632;DHT22;59977;48.782;9.190;2023-02-28T15:20:23;9.90;72.20
24632;DHT22;59977;48.782;9.190;2023-02-28T15:22:50;9.80;73.00
24632;DHT22;59977;48.782;9.190;2023-02-28T15:25:20;10.50;71.90
24632;DHT22;59977;48.782;9.190;2023-02-28T15:27:53;10.30;71.30
24632;DHT22;59977;48.782;9.190;2023-02-28T15:30:27;10.40;71.00
24632;DHT22;59977;48.782;9.190;2023-02-28T15:35:31;10.30;70.30
24632;DHT22;59977;48.782;9.190;2023-02-28T15:38:25;9.80;71.00
24632;DHT22;59977;48.782;9.190;2023-02-28T15:40:52;9.60;72.00
24632;DHT22;59977;48.782;9.190;2023-02-28T15:48:43;11.20;68.90
24632;DHT22;59977;48.782;9.190;2023-02-28T15:51:12;11.50;66.70
24632;DHT22;59977;48.782;9.190;2023-02-28T15:53:54;11.50;65.30
24632;DHT22;59977;48.782;9.190;2023-02-28T16:03:51;8.90;70.90
24632;DHT22;59977;48.782;9.190;2023-02-28T16:11:27;7.80;78.30
24632;DHT22;59977;48.782;9.190;2023-02-28T16:13:53;7.70;76.40
24632;DHT22;59977;48.782;9.190;2023-02-28T16:16:21;7.30;78.20
24632;DHT22;59977;48.782;9.190;2023-02-28T16:18:47;7.10;79.70
24632;DHT22;59977;48.782;9.190;2023-02-28T16:21:13;7.10;80.40
24632;DHT22;59977;48.782;9.190;2023-02-28T16:23:39;7.00;81.40
24632;DHT22;59977;48.782;9.190;2023-02-28T16:26:05;6.90;82.00
24632;DHT22;59977;48.782;9.190;2023-02-28T16:28:35;8.50;83.60
24632;DHT22;59977;48.782;9.190;2023-02-28T16:31:05;6.80;82.90
24632;DHT22;59977;48.782;9.190;2023-02-28T16:33:34;6.70;83.80
24632;DHT22;59977;48.782;9.190;2023-02-28T16:36:00;6.70;84.00
24632;DHT22;59977;48.782;9.190;2023-02-28T16:38:26;6.60;84.40
24632;DHT22;59977;48.782;9.190;2023-02-28T16:40:54;6.60;84.90
24632;DHT22;59977;48.782;9.190;2023-02-28T16:43:23;6.50;85.40
24632;DHT22;59977;48.782;9.190;2023-02-28T16:45:55;6.40;85.80
24632;DHT22;59977;48.782;9.190;2023-02-28T16:48:21;6.40;86.50
24632;DHT22;59977;48.782;9.190;2023-02-28T16:50:47;8.90;88.10
24632;DHT22;59977;48.782;9.190;2023-02-28T16:53:12;6.40;86.90
24632;DHT22;59977;48.782;9.190;2023-02-28T16:55:39;8.20;88.90
24632;DHT22;59977;48.782;9.190;2023-02-28T16:58:04;6.20;88.10
24632;DHT22;59977;48.782;9.190;2023-02-28T17:00:32;6.10;89.00
24632;DHT22;59977;48.782;9.190;2023-02-28T17:02:58;6.00;89.10
24632;DHT22;59977;48.782;9.190;2023-02-28T17:05:25;6.00;89.60
24632;DHT22;59977;48.782;9.190;2023-02-28T17:07:51;7.80;90.60
24632;DHT22;59977;48.782;9.190;2023-02-28T17:10:22;6.90;90.50
24632;DHT22;59977;48.782;9.190;2023-02-28T17:12:49;5.80;90.40
24632;DHT22;59977;48.782;9.190;2023-02-28T17:15:16;5.80;90.70
24632;DHT22;59977;48.782;9.190;2023-02-28T17:17:43;5.80;91.00
24632;DHT22;59977;48.782;9.190;2023-02-28T17:20:18;5.70;91.20
24632;DHT22;59977;48.782;9.190;2023-02-28T17:22:43;5.70;91.60
24632;DHT22;59977;48.782;9.190;2023-02-28T17:25:10;7.60;92.40
24632;DHT22;59977;48.782;9.190;2023-02-28T17:27:36;5.60;92.00
24632;DHT22;59977;48.782;9.190;2023-02-28T17:30:08;7.50;92.70
24632;DHT22;59977;48.782;9.190;2023-02-28T17:32:37;5.50;92.30
24632;DHT22;59977;48.782;9.190;2023-02-28T17:35:03;8.00;93.30
24632;DHT22;59977;48.782;9.190;2023-02-28T17:37:29;5.40;92.60
24632;DHT22;59977;48.782;9.190;2023-02-28T17:39:54;5.40;92.90
24632;DHT22;59977;48.782;9.190;2023-02-28T17:42:20;5.40;93.10
24632;DHT22;59977;48.782;9.190;2023-02-28T17:44:46;5.40;93.30
24632;DHT22;59977;48.782;9.190;2023-02-28T17:47:12;7.10;93.80
24632;DHT22;59977;48.782;9.190;2023-02-28T17:49:38;5.40;93.60
24632;DHT22;59977;48.782;9.190;2023-02-28T17:52:03;5.30;93.90
24632;DHT22;59977;48.782;9.190;2023-02-28T17:54:29;5.30;94.00
24632;DHT22;59977;48.782;9.190;2023-02-28T17:56:55;7.60;94.80
24632;DHT22;59977;48.782;9.190;2023-02-28T17:59:21;8.20;95.30
24632;DHT22;59977;48.782;9.190;2023-02-28T18:01:46;5.00;94.80
24632;DHT22;59977;48.782;9.190;2023-02-28T18:04:12;7.30;95.40
24632;DHT22;59977;48.782;9.190;2023-02-28T18:06:43;5.10;94.90
24632;DHT22;59977;48.782;9.190;2023-02-28T18:09:18;5.20;95.30
24632;DHT22;59977;48.782;9.190;2023-02-28T18:11:44;5.10;95.60
24632;DHT22;59977;48.782;9.190;2023-02-28T18:14:16;4.90;95.70
24632;DHT22;59977;48.782;9.190;2023-02-28T18:16:42;5.10;96.00
24632;DHT22;59977;48.782;9.190;2023-02-28T18:19:08;5.10;96.20
24632;DHT22;59977;48.782;9.190;2023-02-28T18:21:40;5.00;96.50
24632;DHT22;59977;48.782;9.190;2023-02-28T18:24:06;5.00;96.80
24632;DHT22;59977;48.782;9.190;2023-02-28T18:26:32;4.90;97.00
24632;DHT22;59977;48.782;9.190;2023-02-28T18:28:58;4.90;97.20
24632;DHT22;59977;48.782;9.190;2023-02-28T18:31:23;4.90;97.60
24632;DHT22;59977;48.782;9.190;2023-02-28T18:33:50;4.80;97.60
24632;DHT22;59977;48.782;9.190;2023-02-28T18:36:17;4.80;97.70
24632;DHT22;59977;48.782;9.190;2023-02-28T18:38:45;7.20;98.30
24632;DHT22;59977;48.782;9.190;2023-02-28T18:41:11;5.60;98.20
24632;DHT22;59977;48.782;9.190;2023-02-28T18:43:37;4.70;98.00
24632;DHT22;59977;48.782;9.190;2023-02-28T18:46:05;4.70;98.20
24632;DHT22;59977;48.782;9.190;2023-02-28T18:48:31;4.70;98.40
24632;DHT22;59977;48.782;9.190;2023-02-28T18:50:57;4.60;98.80
24632;DHT22;59977;48.782;9.190;2023-02-28T18:53:22;4.60;99.00
24632;DHT22;59977;48.782;9.190;2023-02-28T18:55:48;7.00;99.90
24632;DHT22;59977;48.782;9.190;2023-02-28T18:58:14;4.50;99.30
24632;DHT22;59977;48.782;9.190;2023-02-28T19:00:40;4.30;99.60
24632;DHT22;59977;48.782;9.190;2023-02-28T19:03:05;5.90;99.90
24632;DHT22;59977;48.782;9.190;2023-02-28T19:05:32;4.40;99.90
24632;DHT22;59977;48.782;9.190;2023-02-28T19:08:00;5.80;99.90
24632;DHT22;59977;48.782;9.190;2023-02-28T19:10:26;4.40;99.90
24632;DHT22;59977;48.782;9.190;2023-02-28T19:12:52;4.30;99.90
24632;DHT22;59977;48.782;9.190;2023-02-28T19:15:17;4.20;99.90
24632;DHT22;59977;48.782;9.190;2023-02-28T19:17:43;4.20;99.90
24632;DHT22;59977;48.782;9.190;2023-02-28T19:20:11;4.20;99.90
24632;DHT22;59977;48.782;9.190;2023-02-28T19:22:37;4.30;99.90
24632;DHT22;59977;48.782;9.190;2023-02-28T19:25:04;4.30;99.90
24632;DHT22;59977;48.782;9.190;2023-02-28T19:27:29;4.20;99.90
24632;DHT22;59977;48.782;9.190;2023-02-28T19:29:55;4.20;99.90
24632;DHT22;59977;48.782;9.190;2023-02-28T19:32:24;4.20;99.90
24632;DHT22;59977;48.782;9.190;2023-02-28T19:34:50;4.20;99.90
24632;DHT22;59977;48.782;9.190;2023-02-28T19:37:16;4.10;99.90
24632;DHT22;59977;48.782;9.190;2023-02-28T19:39:45;4.00;99.90
24632;DHT22;59977;48.782;9.190;2023-02-28T19:42:13;4.20;99.90
24632;DHT22;59977;48.782;9.190;2023-02-28T19:44:39;4.10;99.90
24632;DHT22;59977;48.782;9.190;2023-02-28T19:47:06;4.10;99.90
24632;DHT22;59977;48.782;9.190;2023-02-28T19:49:31;4.00;99.90
24632;DHT22;59977;48.782;9.190;2023-02-28T19:51:57;4.20;99.90
24632;DHT22;59977;48.782;9.190;2023-02-28T19:54:24;5.90;99.90
24632;DHT22;59977;48.782;9.190;2023-02-28T19:56:50;4.00;99.90
24632;DHT22;59977;48.782;9.190;2023-02-28T19:59:19;4.20;99.90
24632;DHT22;59977;48.782;9.190;2023-02-28T20:01:44;4.10;99.90
24632;DHT22;59977;48.782;9.190;2023-02-28T20:04:10;7.10;99.90
24632;DHT22;59977;48.782;9.190;2023-02-28T20:06:36;5.90;99.90
24632;DHT22;59977;48.782;9.190;2023-02-28T20:09:03;4.00;99.90
24632;DHT22;59977;48.782;9.190;2023-02-28T20:11:28;2.80;99.90
24632;DHT22;59977;48.782;9.190;2023-02-28T20:13:54;3.90;99.90
24632;DHT22;59977;48.782;9.190;2023-02-28T20:16:22;6.90;99.90
24632;DHT22;59977;48.782;9.190;2023-02-28T20:18:49;3.90;99.90
24632;DHT22;59977;48.782;9.190;2023-02-28T20:21:18;3.90;99.90
24632;DHT22;59977;48.782;9.190;2023-02-28T20:23:45;3.90;99.90
24632;DHT22;59977;48.782;9.190;2023-02-28T20:26:13;3.90;99.90
24632;DHT22;59977;48.782;9.190;2023-02-28T20:28:40;6.10;99.90
24632;DHT22;59977;48.782;9.190;2023-02-28T20:33:38;6.50;99.90
24632;DHT22;59977;48.782;9.190;2023-02-28T20:36:04;6.80;99.90
24632;DHT22;59977;48.782;9.190;2023-02-28T20:38:30;3.80;99.90
24632;DHT22;59977;48.782;9.190;2023-02-28T20:41:00;6.90;99.90
24632;DHT22;59977;48.782;9.190;2023-02-28T20:43:26;3.80;99.90
24632;DHT22;59977;48.782;9.190;2023-02-28T20:45:53;3.60;99.90
24632;DHT22;59977;48.782;9.190;2023-02-28T20:48:19;6.30;99.90
24632;DHT22;59977;48.782;9.190;2023-02-28T20:50:52;1.60;99.90
24632;DHT22;59977;48.782;9.190;2023-02-28T20:53:18;6.10;99.90
24632;DHT22;59977;48.782;9.190;2023-02-28T20:55:57;3.50;99.90
24632;DHT22;59977;48.782;9.190;2023-02-28T20:58:24;3.60;99.90
24632;DHT22;59977;48.782;9.190;2023-02-28T21:00:58;3.60;99.90
24632;DHT22;59977;48.782;9.190;2023-02-28T21:03:23;3.60;99.90
24632;DHT22;59977;48.782;9.190;2023-02-28T21:05:49;4.20;99.90
24632;DHT22;59977;48.782;9.190;2023-02-28T21:08:14;3.50;99.90
24632;DHT22;59977;48.782;9.190;2023-02-28T21:10:40;3.40;99.90
24632;DHT22;59977;48.782;9.190;2023-02-28T21:13:06;3.10;99.90
24632;DHT22;59977;48.782;9.190;2023-02-28T21:15:36;4.40;99.90
24632;DHT22;59977;48.782;9.190;2023-02-28T21:18:02;5.70;99.90
24632;DHT22;59977;48.782;9.190;2023-02-28T21:20:27;3.50;99.90
24632;DHT22;59977;48.782;9.190;2023-02-28T21:22:53;5.80;99.90
24632;DHT22;59977;48.782;9.190;2023-02-28T21:25:19;2.90;99.90
24632;DHT22;59977;48.782;9.190;2023-02-28T21:27:44;5.70;99.90
24632;DHT22;59977;48.782;9.190;2023-02-28T21:30:10;6.30;99.90
24632;DHT22;59977;48.782;9.190;2023-02-28T21:32:36;3.40;99.90
24632;DHT22;59977;48.782;9.190;2023-02-28T21:38:33;3.70;99.90
24632;DHT22;59977;48.782;9.190;2023-02-28T21:41:22;5.30;99.90
24632;DHT22;59977;48.782;9.190;2023-02-28T21:44:00;3.70;99.90
24632;DHT22;59977;48.782;9.190;2023-02-28T21:46:27;5.30;99.90
24632;DHT22;59977;48.782;9.190;2023-02-28T21:51:45;3.40;99.90
24632;DHT22;59977;48.782;9.190;2023-02-28T21:54:20;5.30;99.90
24632;DHT22;59977;48.782;9.190;2023-02-28T21:56:46;5.10;99.90
24632;DHT22;59977;48.782;9.190;2023-02-28T21:59:15;5.80;99.90
24632;DHT22;59977;48.782;9.190;2023-02-28T22:01:41;3.00;99.90
24632;DHT22;59977;48.782;9.190;2023-02-28T22:04:10;4.20;99.90
24632;DHT22;59977;48.782;9.190;2023-02-28T22:06:39;3.30;99.90
24632;DHT22;59977;48.782;9.190;2023-02-28T22:09:07;4.70;99.90
24632;DHT22;59977;48.782;9.190;2023-02-28T22:11:35;5.30;99.90
24632;DHT22;59977;48.782;9.190;2023-02-28T22:14:00;5.50;99.90
24632;DHT22;59977;48.782;9.190;2023-02-28T22:16:28;4.50;99.90
24632;DHT22;59977;48.782;9.190;2023-02-28T22:18:55;6.10;99.90
24632;DHT22;59977;48.782;9.190;2023-02-28T22:21:21;3.10;99.90
24632;DHT22;59977;48.782;9.190;2023-02-28T22:23:47;5.50;99.90
24632;DHT22;59977;48.782;9.190;2023-02-28T22:26:17;2.60;99.90
24632;DHT22;59977;48.782;9.190;2023-02-28T22:28:44;2.60;99.90
24632;DHT22;59977;48.782;9.190;2023-02-28T22:31:27;4.90;99.90
24632;DHT22;59977;48.782;9.190;2023-02-28T22:34:01;3.10;99.90
24632;DHT22;59977;48.782;9.190;2023-02-28T22:36:28;2.50;99.90
24632;DHT22;59977;48.782;9.190;2023-02-28T22:38:55;4.60;99.90
24632;DHT22;59977;48.782;9.190;2023-02-28T22:41:22;4.60;99.90
24632;DHT22;59977;48.782;9.190;2023-02-28T22:43:58;4.80;99.90
24632;DHT22;59977;48.782;9.190;2023-02-28T22:46:27;5.10;99.90
24632;DHT22;59977;48.782;9.190;2023-02-28T22:48:54;2.30;99.90
24632;DHT22;59977;48.782;9.190;2023-02-28T22:51:21;2.10;99.90
24632;DHT22;59977;48.782;9.190;2023-02-28T22:53:50;5.50;99.90
24632;DHT22;59977;48.782;9.190;2023-02-28T22:56:18;2.70;99.90
24632;DHT22;59977;48.782;9.190;2023-02-28T22:58:48;5.50;99.90
24632;DHT22;59977;48.782;9.190;2023-02-28T23:01:15;4.50;99.90
24632;DHT22;59977;48.782;9.190;2023-02-28T23:03:43;5.20;99.90
24632;DHT22;59977;48.782;9.190;2023-02-28T23:08:44;5.00;99.90
24632;DHT22;59977;48.782;9.190;2023-02-28T23:11:15;2.50;99.90
24632;DHT22;59977;48.782;9.190;2023-02-28T23:13:41;4.80;99.90
24632;DHT22;59977;48.782;9.190;2023-02-28T23:16:07;5.20;99.90
24632;DHT22;59977;48.782;9.190;2023-02-28T23:18:33;2.70;99.90
24632;DHT22;59977;48.782;9.190;2023-02-28T23:20:59;2.40;99.90
24632;DHT22;59977;48.782;9.190;2023-02-28T23:23:25;5.30;99.90
24632;DHT22;59977;48.782;9.190;2023-02-28T23:25:51;2.60;99.90
24632;DHT22;59977;48.782;9.190;2023-02-28T23:28:17;1.50;99.90
24632;DHT22;59977;48.782;9.190;2023-02-28T23:30:43;2.60;99.90
24632;DHT22;59977;48.782;9.190;2023-02-28T23:33:08;2.60;99.90
24632;DHT22;59977;48.782;9.190;2023-02-28T23:35:34;2.60;99.90
24632;DHT22;59977;48.782;9.190;2023-02-28T23:38:00;2.60;99.90
24632;DHT22;59977;48.782;9.190;2023-02-28T23:40:26;2.60;99.90
24632;DHT22;59977;48.782;9.190;2023-02-28T23:42:51;2.60;99.90
24632;DHT22;59977;48.782;9.190;2023-02-28T23:45:18;2.60;99.90
24632;DHT22;59977;48.782;9.190;2023-02-28T23:47:44;2.50;99.90
24632;DHT22;59977;48.782;9.190;2023-02-28T23:50:10;2.50;99.90
24632;DHT22;59977;48.782;9.190;2023-02-28T23:52:35;2.50;99.90
24632;DHT22;59977;48.782;9.190;2023-02-28T23:55:01;2.60;99.90
24632;DHT22;59977;48.782;9.190;2023-02-28T23:57:27;2.50;99.90
24632;DHT22;59977;48.782;9.190;2023-02-28T23:59:54;2.50;99.90
